Time;durP1;ratioP1;P1;durP2;ratioP2;P2;SDS_P1;SDS_P2;PMS_P1;PMS_P2;Temp;Humidity;BMP_temperature;BMP_pressure;BME280_temperature;BME280_humidity;BME280_pressure;Samples;Min_cycle;Max_cycle;Signal;HPM_P1;HPM_P2
2023/07/08 00:00:45;;;;;;;5.07;2.90;;;;;;;18.45;73.40;99239.28;4469270;32;20137;-65
2023/07/08 00:03:14;;;;;;;4.85;2.65;;;;;;;18.37;73.20;99237.53;4468074;32;20105;-65
2023/07/08 00:05:44;;;;;;;10.15;3.00;;;;;;;18.37;73.12;99234.88;4469105;32;20177;-65
2023/07/08 00:08:13;;;;;;;5.62;3.00;;;;;;;18.41;72.75;99238.00;4468083;32;20158;-65
2023/07/08 00:10:41;;;;;;;6.53;2.65;;;;;;;18.41;72.94;99238.00;4469157;32;20101;-66
2023/07/08 00:13:10;;;;;;;5.57;2.90;;;;;;;18.42;72.58;99235.16;4472290;32;20582;-66
2023/07/08 00:15:39;;;;;;;3.72;2.45;;;;;;;18.41;72.20;99233.53;4484973;31;20096;-66
2023/07/08 00:18:15;;;;;;;5.75;3.03;;;;;;;18.43;72.37;99236.00;4484719;31;20145;-66
2023/07/08 00:20:49;;;;;;;4.87;2.55;;;;;;;18.42;72.11;99234.34;4484727;31;20084;-65
2023/07/08 00:23:21;;;;;;;3.60;2.28;;;;;;;18.46;71.67;99243.59;4484732;32;20092;-65
2023/07/08 00:25:49;;;;;;;8.20;2.37;;;;;;;18.47;71.41;99237.31;4484901;31;20140;-66
2023/07/08 00:28:19;;;;;;;7.75;2.47;;;;;;;18.42;71.49;99237.81;4483618;32;20099;-65
2023/07/08 00:30:47;;;;;;;6.37;2.85;;;;;;;18.40;71.15;99233.69;4484699;32;20110;-66
2023/07/08 00:33:16;;;;;;;7.40;2.90;;;;;;;18.43;70.89;99238.66;4484629;32;20096;-65
2023/07/08 00:35:45;;;;;;;7.62;2.60;;;;;;;18.41;70.44;99235.34;4484422;31;20183;-66
2023/07/08 00:38:27;;;;;;;6.75;2.62;;;;;;;18.45;70.53;99236.66;4483183;32;20468;-66
2023/07/08 00:41:11;;;;;;;5.97;2.10;;;;;;;18.41;70.35;99230.03;4484793;31;20150;-66
2023/07/08 00:43:40;;;;;;;;;;;;;;;18.30;70.32;99233.91;4483597;32;20457;-66
2023/07/08 00:46:11;;;;;;;3.25;2.08;;;;;;;18.39;69.79;99234.69;4484691;31;19979;-66
2023/07/08 00:48:39;;;;;;;3.37;2.30;;;;;;;18.31;69.75;99235.56;4484292;32;20076;-65
2023/07/08 00:51:10;;;;;;;4.95;2.50;;;;;;;18.27;69.86;99229.81;4477657;32;20192;-65
2023/07/08 00:53:38;;;;;;;5.32;2.22;;;;;;;18.23;69.52;99233.81;4467398;32;20164;-66
2023/07/08 00:56:08;;;;;;;5.12;2.58;;;;;;;18.20;69.36;99228.84;4468438;32;20119;-65
2023/07/08 00:58:40;;;;;;;4.40;2.47;;;;;;;18.18;68.60;99230.87;4468575;32;20084;-66
2023/07/08 01:01:08;;;;;;;3.33;2.28;;;;;;;18.20;68.87;99234.16;4469582;32;20097;-66
2023/07/08 01:03:45;;;;;;;3.45;2.45;;;;;;;18.19;68.86;99232.50;4469220;32;20096;-66
2023/07/08 01:06:17;;;;;;;4.60;2.50;;;;;;;18.21;68.93;99229.66;4470622;32;20080;-66
2023/07/08 01:08:45;;;;;;;4.03;2.47;;;;;;;18.16;68.77;99232.03;4469206;32;20109;-66
2023/07/08 01:11:13;;;;;;;6.15;2.47;;;;;;;18.23;68.24;99233.00;4469453;32;20320;-66
2023/07/08 01:13:43;;;;;;;4.80;2.28;;;;;;;18.25;67.75;99237.09;4476633;32;20084;-66
2023/07/08 01:16:11;;;;;;;4.62;2.30;;;;;;;18.27;67.25;99231.63;4484898;32;20397;-66
2023/07/08 01:18:40;;;;;;;3.90;2.20;;;;;;;18.30;67.17;99231.25;4486165;31;20537;-65
2023/07/08 01:21:32;;;;;;;5.85;2.47;;;;;;;18.34;66.96;99229.09;4485173;32;20127;-66
2023/07/08 01:24:04;;;;;;;5.20;2.17;;;;;;;18.27;67.25;99221.84;4485956;32;20144;-66
2023/07/08 01:26:34;;;;;;;3.65;2.03;;;;;;;18.23;67.86;99222.38;4486065;32;20140;-66
2023/07/08 01:29:03;;;;;;;5.60;2.58;;;;;;;18.24;68.75;99221.34;4484655;32;20374;-66
2023/07/08 01:31:30;;;;;;;4.95;2.30;;;;;;;18.20;69.31;99220.09;4484839;32;20108;-65
2023/07/08 01:34:12;;;;;;;5.45;2.45;;;;;;;18.08;69.46;99224.94;4485952;31;20096;-65
2023/07/08 01:36:44;;;;;;;2.92;2.20;;;;;;;17.99;70.08;99226.00;4486136;31;20107;-66
2023/07/08 01:39:17;;;;;;;5.57;2.60;;;;;;;18.02;69.72;99228.31;4484763;32;20081;-65
2023/07/08 01:41:46;;;;;;;6.25;2.42;;;;;;;18.01;69.34;99222.16;4486108;31;20165;-66
2023/07/08 01:44:29;;;;;;;4.50;2.72;;;;;;;18.05;69.52;99227.94;4485908;31;20485;-66
2023/07/08 01:47:00;;;;;;;5.25;2.67;;;;;;;18.12;69.42;99220.94;4486011;31;20079;-66
2023/07/08 01:49:28;;;;;;;3.87;2.60;;;;;;;18.15;69.23;99225.88;4484442;32;20127;-66
2023/07/08 01:51:57;;;;;;;6.75;2.65;;;;;;;18.17;69.18;99229.19;4485667;32;20454;-65
2023/07/08 01:54:26;;;;;;;5.30;2.65;;;;;;;18.15;69.89;99230.38;4484682;32;20507;-65
2023/07/08 01:56:56;;;;;;;4.62;2.62;;;;;;;18.11;71.21;99223.75;4485839;32;20096;-66
2023/07/08 01:59:24;;;;;;;4.00;2.92;;;;;;;17.95;72.81;99220.19;4486117;32;20545;-66
2023/07/08 02:01:54;;;;;;;5.85;2.75;;;;;;;17.77;74.91;99217.75;4485712;31;20096;-66
2023/07/08 02:04:24;;;;;;;4.00;2.50;;;;;;;17.63;75.84;99210.56;4486025;32;20145;-65
2023/07/08 02:06:57;;;;;;;3.78;2.30;;;;;;;17.51;76.77;99215.41;4486164;31;20089;-65
2023/07/08 02:09:25;;;;;;;5.18;3.10;;;;;;;17.36;78.42;99215.28;4485776;31;20442;-65
2023/07/08 02:11:53;;;;;;;4.80;2.58;;;;;;;17.27;79.05;99219.75;4485657;31;20092;-65
2023/07/08 02:14:22;;;;;;;3.85;2.58;;;;;;;17.22;79.99;99214.16;4485442;31;20615;-65
2023/07/08 02:16:50;;;;;;;5.03;2.90;;;;;;;17.16;80.45;99215.66;4485522;32;20080;-66
2023/07/08 02:19:19;;;;;;;6.62;2.30;;;;;;;17.10;81.81;99220.81;4485721;31;20175;-65
2023/07/08 02:21:47;;;;;;;4.32;2.80;;;;;;;17.00;82.41;99219.16;4484506;32;20112;-65
2023/07/08 02:24:16;;;;;;;3.50;2.58;;;;;;;16.96;83.53;99219.66;4485969;31;20120;-66
2023/07/08 02:26:47;;;;;;;6.05;2.97;;;;;;;16.89;83.08;99229.25;4485410;31;20495;-66
2023/07/08 02:29:14;;;;;;;3.90;2.65;;;;;;;16.84;84.50;99227.09;4485729;31;20247;-66
2023/07/08 02:31:42;;;;;;;4.55;2.60;;;;;;;16.75;85.67;99218.31;4485525;31;20116;-66
2023/07/08 02:34:10;;;;;;;3.92;2.58;;;;;;;16.71;85.19;99218.81;4485693;31;20111;-65
2023/07/08 02:36:38;;;;;;;5.32;2.85;;;;;;;16.63;85.63;99222.28;4485875;32;20088;-66
2023/07/08 02:39:06;;;;;;;6.57;2.83;;;;;;;16.56;86.52;99216.00;4485519;31;20127;-65
2023/07/08 02:41:34;;;;;;;6.43;3.00;;;;;;;16.53;86.74;99217.13;4485425;31;20100;-66
2023/07/08 02:44:01;;;;;;;4.28;2.70;;;;;;;16.44;87.01;99223.41;4485469;31;20799;-65
2023/07/08 02:46:29;;;;;;;4.22;2.92;;;;;;;16.40;87.40;99227.41;4485490;31;20422;-66
2023/07/08 02:48:58;;;;;;;6.65;2.90;;;;;;;16.35;87.76;99227.03;4485361;31;20490;-65
2023/07/08 02:51:26;;;;;;;5.35;2.55;;;;;;;16.29;88.50;99226.72;4485254;31;20123;-66
2023/07/08 02:53:54;;;;;;;4.35;2.83;;;;;;;16.25;88.04;99222.75;4485392;32;20092;-65
2023/07/08 02:56:22;;;;;;;9.85;2.97;;;;;;;16.19;88.72;99223.37;4485440;31;20096;-65
2023/07/08 02:58:50;;;;;;;7.80;3.20;;;;;;;16.17;88.23;99232.47;4485529;31;20088;-66
2023/07/08 03:01:17;;;;;;;5.47;3.00;;;;;;;16.14;88.86;99236.28;4485696;31;20481;-66
2023/07/08 03:03:46;;;;;;;4.32;2.67;;;;;;;16.11;89.86;99239.25;4485918;32;20088;-66
2023/07/08 03:06:14;;;;;;;4.43;2.50;;;;;;;16.10;90.23;99235.75;4485525;31;20582;-65
2023/07/08 03:08:42;;;;;;;5.05;2.42;;;;;;;16.12;90.83;99228.50;4485544;31;20151;-66
2023/07/08 03:11:11;;;;;;;5.07;2.55;;;;;;;16.12;91.18;99236.44;4485510;31;20387;-66
2023/07/08 03:13:39;;;;;;;5.93;2.58;;;;;;;16.10;91.91;99227.81;4484605;32;20116;-65
2023/07/08 03:16:12;;;;;;;5.32;2.40;;;;;;;16.04;91.65;99235.56;4485400;31;20095;-65
2023/07/08 03:18:45;;;;;;;3.78;2.35;;;;;;;16.01;91.48;99235.91;4485592;31;20126;-65
2023/07/08 03:21:14;;;;;;;4.93;2.47;;;;;;;16.03;92.42;99244.50;4485383;31;20093;-65
2023/07/08 03:23:43;;;;;;;4.53;2.78;;;;;;;16.09;92.11;99233.28;4483551;32;20109;-65
2023/07/08 03:26:14;;;;;;;5.45;2.55;;;;;;;16.18;92.82;99236.78;4485415;31;20157;-65
2023/07/08 03:28:43;;;;;;;6.75;3.15;;;;;;;16.25;92.97;99232.50;4485464;31;20088;-66
2023/07/08 03:31:11;;;;;;;6.87;3.12;;;;;;;16.36;91.89;99234.81;4485381;32;20092;-65
2023/07/08 03:33:38;;;;;;;4.55;2.75;;;;;;;16.53;90.88;99245.41;4485241;31;20096;-65
2023/07/08 03:36:12;;;;;;;4.07;2.53;;;;;;;16.77;89.87;99247.25;4485173;31;20092;-65
2023/07/08 03:38:41;;;;;;;5.28;2.53;;;;;;;16.81;88.37;99241.47;4483864;32;20163;-65
2023/07/08 03:41:12;;;;;;;6.95;2.80;;;;;;;16.91;88.04;99245.78;4485185;32;20422;-65
2023/07/08 03:43:40;;;;;;;5.32;2.87;;;;;;;17.09;88.17;99254.37;4485433;31;20188;-65
2023/07/08 03:46:12;;;;;;;4.85;2.47;;;;;;;17.26;86.75;99249.91;4485055;31;20104;-66
2023/07/08 03:48:41;;;;;;;5.15;2.70;;;;;;;17.39;85.95;99252.00;4485371;31;20084;-65
2023/07/08 03:51:29;;;;;;;7.57;2.75;;;;;;;17.53;85.10;99250.47;4484852;31;20470;-65
2023/07/08 03:53:59;;;;;;;5.00;2.60;;;;;;;17.66;84.92;99252.59;4485204;31;20172;-65
2023/07/08 03:56:29;;;;;;;4.37;2.58;;;;;;;17.81;82.53;99255.38;4485200;32;20445;-65
2023/07/08 03:58:57;;;;;;;4.68;2.70;;;;;;;17.97;82.14;99249.19;4485456;31;20092;-65
2023/07/08 04:01:26;;;;;;;6.40;2.62;;;;;;;18.12;80.13;99255.41;4485273;31;20807;-65
2023/07/08 04:03:56;;;;;;;5.07;2.87;;;;;;;18.26;79.21;99254.66;4485480;31;20250;-65
2023/07/08 04:06:24;;;;;;;5.85;2.40;;;;;;;18.41;81.21;99256.56;4485194;31;20100;-66
2023/07/08 04:08:52;;;;;;;5.87;2.72;;;;;;;18.52;78.70;99258.81;4485037;31;20114;-65
2023/07/08 04:11:22;;;;;;;4.53;2.28;;;;;;;18.63;75.43;99257.56;4484914;31;20116;-66
2023/07/08 04:13:51;;;;;;;4.25;2.50;;;;;;;18.79;75.35;99256.66;4485313;31;20108;-66
2023/07/08 04:16:23;;;;;;;3.58;2.45;;;;;;;18.92;77.87;99262.19;4484920;32;20135;-66
2023/07/08 04:18:53;;;;;;;4.65;2.70;;;;;;;19.02;77.23;99263.78;4484091;32;20080;-66
2023/07/08 04:21:27;;;;;;;4.53;2.42;;;;;;;19.15;78.09;99262.16;4484979;32;20508;-66
2023/07/08 04:23:56;;;;;;;5.20;2.40;;;;;;;19.31;79.55;99266.47;4484974;31;20114;-66
2023/07/08 04:26:24;;;;;;;5.95;2.60;;;;;;;19.43;77.80;99264.19;4484938;32;20469;-66
2023/07/08 04:28:52;;;;;;;5.68;2.67;;;;;;;19.59;75.66;99260.56;4484668;31;20122;-66
2023/07/08 04:31:19;;;;;;;3.85;2.20;;;;;;;19.76;77.42;99261.19;4484726;31;20100;-66
2023/07/08 04:33:47;;;;;;;7.62;2.90;;;;;;;19.93;77.27;99261.03;4484637;32;20176;-66
2023/07/08 04:36:15;;;;;;;5.60;2.35;;;;;;;20.09;78.23;99260.81;4482062;32;20088;-66
2023/07/08 04:38:46;;;;;;;4.68;2.78;;;;;;;20.23;77.59;99260.94;4484573;31;20152;-66
2023/07/08 04:41:14;;;;;;;3.75;2.37;;;;;;;20.42;77.56;99264.84;4484584;31;20138;-66
2023/07/08 04:43:42;;;;;;;3.72;2.12;;;;;;;20.60;76.62;99267.06;4484374;31;20108;-66
2023/07/08 04:46:27;;;;;;;2.62;2.03;;;;;;;20.79;75.84;99268.28;4484403;31;20548;-66
2023/07/08 04:48:55;;;;;;;3.03;2.37;;;;;;;20.94;74.64;99269.06;4484196;31;20106;-66
2023/07/08 04:51:24;;;;;;;3.55;2.10;;;;;;;21.16;72.90;99266.34;4476261;32;20181;-66
2023/07/08 04:53:51;;;;;;;3.87;2.22;;;;;;;21.35;69.87;99273.66;4468438;32;20097;-66
2023/07/08 04:56:19;;;;;;;4.93;3.00;;;;;;;21.56;69.58;99278.13;4468937;32;20389;-66
2023/07/08 04:58:48;;;;;;;6.03;2.45;;;;;;;21.80;70.08;99278.66;4468503;32;20161;-66
2023/07/08 05:01:16;;;;;;;3.62;2.40;;;;;;;21.93;59.85;99277.91;4468664;32;20120;-66
2023/07/08 05:03:43;;;;;;;5.07;2.35;;;;;;;21.96;58.36;99275.66;4468551;32;20096;-66
2023/07/08 05:06:11;;;;;;;4.45;2.35;;;;;;;22.07;56.43;99278.78;4468309;32;20135;-66
2023/07/08 05:08:39;;;;;;;3.33;2.15;;;;;;;22.28;56.24;99281.31;4468549;32;20104;-66
2023/07/08 05:11:06;;;;;;;7.30;2.67;;;;;;;22.28;54.38;99272.50;4468144;32;20534;-66
2023/07/08 05:13:34;;;;;;;5.75;2.25;;;;;;;22.34;54.18;99279.72;4472745;32;20181;-66
2023/07/08 05:16:02;;;;;;;4.12;2.45;;;;;;;22.57;53.49;99282.03;4483919;32;20505;-66
2023/07/08 05:18:31;;;;;;;4.97;2.50;;;;;;;22.74;53.11;99281.66;4483860;31;20088;-66
2023/07/08 05:21:03;;;;;;;4.68;2.20;;;;;;;22.96;52.05;99279.63;4484201;31;20097;-66
2023/07/08 05:23:31;;;;;;;2.87;2.08;;;;;;;23.23;51.56;99295.69;4483880;32;20386;-66
2023/07/08 05:26:02;;;;;;;3.58;2.55;;;;;;;23.37;51.63;99292.78;4483967;31;20477;-66
2023/07/08 05:28:30;;;;;;;7.18;2.50;;;;;;;23.56;51.10;99296.47;4483919;31;20160;-66
2023/07/08 05:30:58;;;;;;;4.55;2.50;;;;;;;23.66;49.99;99296.00;4483841;31;20112;-66
2023/07/08 05:33:28;;;;;;;3.53;2.72;;;;;;;23.77;50.23;99302.59;4483910;31;20161;-66
2023/07/08 05:35:56;;;;;;;3.50;2.47;;;;;;;24.00;49.81;99302.13;4483601;31;20092;-66
2023/07/08 05:38:24;;;;;;;5.47;2.45;;;;;;;24.11;50.89;99306.00;4483652;32;20093;-66
2023/07/08 05:40:55;;;;;;;3.33;2.20;;;;;;;24.24;48.74;99305.94;4483725;32;20450;-66
2023/07/08 05:43:24;;;;;;;4.37;2.50;;;;;;;24.28;47.74;99311.69;4483831;31;20092;-66
2023/07/08 05:45:52;;;;;;;5.28;2.65;;;;;;;24.51;48.56;99311.19;4483853;31;20114;-66
2023/07/08 05:48:37;;;;;;;5.18;2.40;;;;;;;24.51;48.17;99307.66;4485004;32;20097;-66
2023/07/08 05:51:05;;;;;;;5.10;2.20;;;;;;;24.68;45.98;99300.81;4486000;31;20120;-66
2023/07/08 05:53:34;;;;;;;6.10;2.40;;;;;;;24.75;45.62;99306.09;4485929;32;20597;-66
2023/07/08 05:56:03;;;;;;;5.50;2.40;;;;;;;24.65;47.43;99311.09;4486055;32;20155;-66
2023/07/08 05:58:30;;;;;;;4.25;2.08;;;;;;;24.62;47.61;99315.87;4486267;31;20088;-66
2023/07/08 06:00:59;;;;;;;5.53;2.35;;;;;;;24.87;47.78;99312.41;4485886;31;20084;-66
2023/07/08 06:03:28;;;;;;;5.25;2.92;;;;;;;25.21;49.53;99312.97;4485975;31;20092;-66
2023/07/08 06:05:55;;;;;;;5.90;2.70;;;;;;;25.30;46.92;99317.06;4485696;32;20462;-66
2023/07/08 06:08:23;;;;;;;6.03;2.55;;;;;;;25.52;45.98;99319.31;4485810;32;20122;-66
2023/07/08 06:10:51;;;;;;;4.93;2.33;;;;;;;25.50;46.38;99318.72;4485761;31;20101;-66
2023/07/08 06:13:18;;;;;;;3.97;2.40;;;;;;;25.13;45.42;99327.47;4485741;32;20097;-66
2023/07/08 06:15:46;;;;;;;5.40;2.60;;;;;;;24.85;46.45;99333.25;4485845;31;20111;-66
2023/07/08 06:18:14;;;;;;;7.05;2.62;;;;;;;24.70;45.85;99338.09;4485447;31;20111;-66
2023/07/08 06:20:41;;;;;;;3.60;2.67;;;;;;;24.77;45.15;99328.16;4485783;32;20160;-66
2023/07/08 06:23:08;;;;;;;10.00;2.30;;;;;;;24.67;46.42;99333.97;4485727;31;20130;-66
2023/07/08 06:25:37;;;;;;;4.60;2.62;;;;;;;24.61;47.32;99326.81;4485801;31;20088;-66
2023/07/08 06:28:04;;;;;;;4.03;2.62;;;;;;;24.38;52.61;99327.31;4485754;31;20080;-66
2023/07/08 06:30:32;;;;;;;4.10;2.85;;;;;;;24.41;51.37;99333.06;4485652;31;20120;-66
2023/07/08 06:33:00;;;;;;;8.32;3.50;;;;;;;24.23;50.07;99323.03;4485808;31;20088;-66
2023/07/08 06:35:28;;;;;;;6.78;3.12;;;;;;;24.44;50.31;99327.28;4485571;31;20163;-66
2023/07/08 06:37:56;;;;;;;5.80;3.03;;;;;;;24.63;51.28;99343.47;4485682;32;20152;-66
2023/07/08 06:40:30;;;;;;;7.32;2.75;;;;;;;24.91;51.59;99331.56;4485579;31;20144;-66
2023/07/08 06:42:57;;;;;;;4.68;2.92;;;;;;;25.17;49.37;99329.72;4485617;31;20072;-66
2023/07/08 06:45:27;;;;;;;3.72;2.80;;;;;;;25.41;49.01;99325.44;4485827;31;20172;-66
2023/07/08 06:47:55;;;;;;;6.35;2.67;;;;;;;25.54;49.24;99325.28;4485438;31;20483;-66
2023/07/08 06:50:23;;;;;;;5.53;2.70;;;;;;;25.62;48.76;99316.97;4485183;31;20187;-66
2023/07/08 06:52:53;;;;;;;3.87;2.47;;;;;;;25.70;44.34;99329.25;4485794;31;20108;-66
2023/07/08 06:55:21;;;;;;;6.20;2.30;;;;;;;25.82;45.56;99326.66;4485344;31;20127;-66
2023/07/08 06:57:49;;;;;;;4.30;2.55;;;;;;;25.83;44.72;99322.94;4484504;31;20472;-66
2023/07/08 07:00:16;;;;;;;4.90;2.75;;;;;;;25.88;45.60;99327.66;4485271;32;20108;-66
2023/07/08 07:02:46;;;;;;;4.55;1.87;;;;;;;25.96;45.54;99317.41;4485705;31;20474;-66
2023/07/08 07:05:13;;;;;;;3.47;2.53;;;;;;;26.05;43.90;99319.84;4485297;31;20100;-66
2023/07/08 07:07:41;;;;;;;4.78;2.67;;;;;;;26.05;42.92;99319.84;4485456;31;20174;-66
2023/07/08 07:10:09;;;;;;;3.42;2.50;;;;;;;26.05;42.74;99314.47;4485311;31;20138;-66
2023/07/08 07:12:37;;;;;;;7.70;2.92;;;;;;;25.84;44.89;99317.34;4485459;31;20122;-66
2023/07/08 07:15:05;;;;;;;3.78;2.50;;;;;;;26.14;46.74;99308.53;4485120;31;20088;-66
2023/07/08 07:17:32;;;;;;;5.05;2.42;;;;;;;26.08;45.36;99309.44;4483996;32;20096;-66
2023/07/08 07:20:00;;;;;;;3.60;2.53;;;;;;;25.98;44.14;99317.19;4485112;31;20084;-66
2023/07/08 07:22:29;;;;;;;3.53;2.50;;;;;;;25.90;44.66;99314.81;4485326;31;20195;-66
2023/07/08 07:24:56;;;;;;;12.75;3.10;;;;;;;26.17;44.66;99316.16;4485163;31;20450;-66
2023/07/08 07:27:24;;;;;;;3.78;2.08;;;;;;;26.10;42.78;99314.59;4485204;31;20093;-66
2023/07/08 07:29:52;;;;;;;4.85;2.50;;;;;;;25.73;43.65;99312.72;4485170;31;20112;-66
2023/07/08 07:32:23;;;;;;;3.53;2.50;;;;;;;25.68;43.21;99316.06;4485129;31;20571;-66
2023/07/08 07:34:50;;;;;;;3.78;2.35;;;;;;;25.77;42.56;99323.81;4485182;31;20438;-66
2023/07/08 07:37:20;;;;;;;10.93;2.85;;;;;;;25.90;42.59;99318.28;4485107;31;20509;-66
2023/07/08 07:39:48;;;;;;;6.60;2.60;;;;;;;26.13;44.88;99316.81;4484982;31;20088;-66
2023/07/08 07:42:17;;;;;;;5.12;2.65;;;;;;;26.13;44.58;99316.81;4485241;32;20081;-66
2023/07/08 07:44:45;;;;;;;5.70;2.72;;;;;;;26.18;40.51;99317.78;4485005;31;20208;-66
2023/07/08 07:47:13;;;;;;;4.47;2.47;;;;;;;26.18;42.53;99325.03;4485085;32;20107;-66
2023/07/08 07:49:41;;;;;;;4.35;2.20;;;;;;;26.40;44.00;99314.63;4484809;31;20150;-66
2023/07/08 07:52:10;;;;;;;4.75;2.55;;;;;;;26.71;43.26;99316.28;4484893;31;20092;-66
2023/07/08 07:54:38;;;;;;;5.00;2.72;;;;;;;26.90;42.23;99314.34;4485191;31;20085;-66
2023/07/08 07:57:07;;;;;;;3.70;2.83;;;;;;;27.12;42.33;99315.66;4484930;31;20100;-66
2023/07/08 07:59:37;;;;;;;4.57;2.47;;;;;;;26.90;42.22;99308.16;4485144;31;20787;-66
2023/07/08 08:02:04;;;;;;;9.02;2.20;;;;;;;26.88;43.09;99310.25;4484875;31;20180;-66
2023/07/08 08:04:32;;;;;;;5.20;2.50;;;;;;;27.12;41.43;99305.72;4484956;32;20130;-66
2023/07/08 08:06:59;;;;;;;4.93;2.20;;;;;;;27.15;39.59;99301.78;4485144;32;20145;-66
2023/07/08 08:09:27;;;;;;;4.90;2.50;;;;;;;27.17;39.44;99305.84;4484548;32;20108;-66
2023/07/08 08:11:55;;;;;;;6.20;2.90;;;;;;;27.34;37.10;99306.00;4484746;32;20096;-66
2023/07/08 08:14:22;;;;;;;5.32;3.20;;;;;;;27.20;38.53;99304.56;4484702;31;20145;-66
2023/07/08 08:16:50;;;;;;;3.40;2.30;;;;;;;26.85;40.25;99297.28;4484773;31;20144;-66
2023/07/08 08:19:18;;;;;;;4.40;2.50;;;;;;;27.15;40.10;99299.06;4485092;32;20093;-66
2023/07/08 08:21:47;;;;;;;7.43;2.60;;;;;;;27.09;39.54;99298.13;4484762;31;20140;-66
2023/07/08 08:24:15;;;;;;;4.82;2.35;;;;;;;27.32;37.65;99291.97;4485064;31;20114;-66
2023/07/08 08:26:42;;;;;;;6.53;2.67;;;;;;;27.26;38.11;99296.38;4484645;31;20118;-66
2023/07/08 08:29:09;;;;;;;6.82;2.67;;;;;;;27.30;38.25;99294.03;4484649;31;20084;-66
2023/07/08 08:31:36;;;;;;;4.78;2.75;;;;;;;27.60;40.76;99303.88;4484645;31;20097;-66
2023/07/08 08:34:03;;;;;;;7.53;3.37;;;;;;;27.67;39.13;99304.56;4484529;31;20092;-66
2023/07/08 08:36:30;;;;;;;8.02;2.53;;;;;;;27.48;39.03;99303.06;4484596;31;20119;-66
2023/07/08 08:38:57;;;;;;;3.87;2.40;;;;;;;27.60;36.82;99303.88;4484543;31;20469;-66
2023/07/08 08:41:32;;;;;;;4.47;2.42;;;;;;;27.59;38.97;99299.56;4484450;31;20164;-66
2023/07/08 08:44:00;;;;;;;6.13;2.80;;;;;;;27.83;37.14;99292.28;4484835;31;20446;-66
2023/07/08 08:46:48;;;;;;;3.58;2.50;;;;;;;27.63;36.62;99298.00;4484363;31;20508;-66
2023/07/08 08:49:23;;;;;;;4.20;2.50;;;;;;;27.70;39.55;99300.59;4484219;31;20239;-66
2023/07/08 08:51:51;;;;;;;5.90;2.92;;;;;;;27.62;40.31;99296.41;4484171;31;20175;-66
2023/07/08 08:54:19;;;;;;;4.60;2.92;;;;;;;27.89;36.00;99296.69;4484158;32;20160;-66
2023/07/08 08:56:58;;;;;;;6.05;3.10;;;;;;;27.79;35.81;99291.91;4484230;32;20093;-66
2023/07/08 08:59:45;;;;;;;7.80;2.45;;;;;;;27.73;36.81;99294.75;4484550;31;20344;-66
2023/07/08 09:02:51;;;;;;;4.97;3.10;;;;;;;27.96;36.25;99289.34;4483291;32;20126;-66
2023/07/08 09:05:19;;;;;;;4.75;2.78;;;;;;;27.73;35.85;99276.69;4419651;32;20210;-66
2023/07/08 09:08:09;;;;;;;8.65;2.78;;;;;;;27.68;35.34;99278.50;4419624;32;20107;-66
2023/07/08 09:10:45;;;;;;;3.47;2.60;;;;;;;27.69;34.98;99275.56;4419967;32;20151;-66
2023/07/08 09:13:30;;;;;;;7.12;2.70;;;;;;;27.69;35.81;99286.34;4406883;32;20113;-66
2023/07/08 09:16:06;;;;;;;3.53;2.65;;;;;;;28.02;36.33;99278.66;4419717;32;20578;-66
2023/07/08 09:18:50;;;;;;;3.83;2.78;;;;;;;28.15;35.77;99283.78;4419524;32;20090;-66
2023/07/08 09:21:26;;;;;;;9.37;3.00;;;;;;;28.40;35.93;99286.09;4419779;32;20438;-66
2023/07/08 09:24:00;;;;;;;3.35;2.67;;;;;;;28.54;35.80;99278.56;4409248;32;20565;-66
2023/07/08 09:26:29;;;;;;;6.50;2.87;;;;;;;28.43;35.30;99285.63;4421612;32;20448;-66
2023/07/08 09:28:57;;;;;;;3.87;2.75;;;;;;;28.75;37.02;99277.06;4409138;32;20098;-66
2023/07/08 09:31:28;;;;;;;3.67;2.53;;;;;;;28.85;35.54;99276.41;4421539;32;20106;-66
2023/07/08 09:34:17;;;;;;;4.40;2.80;;;;;;;28.62;36.06;99282.78;4421878;32;20175;-66
2023/07/08 09:36:47;;;;;;;4.28;2.30;;;;;;;28.68;34.38;99284.50;4408849;32;20216;-66
2023/07/08 09:39:17;;;;;;;4.05;2.47;;;;;;;29.01;36.35;99283.69;4421891;32;20086;-66
2023/07/08 09:41:46;;;;;;;4.75;3.03;;;;;;;29.37;35.33;99278.88;4442239;32;20453;-66
2023/07/08 09:44:16;;;;;;;4.47;2.47;;;;;;;29.77;34.22;99270.72;4486005;31;20100;-66
2023/07/08 09:46:44;;;;;;;3.65;2.45;;;;;;;29.89;34.44;99283.06;4485865;31;20123;-66
2023/07/08 09:49:32;;;;;;;6.20;2.65;;;;;;;30.02;33.86;99276.44;4485804;31;20128;-66
2023/07/08 09:52:00;;;;;;;3.50;2.40;;;;;;;30.03;32.58;99282.69;4473747;32;20100;-66
2023/07/08 09:54:32;;;;;;;4.60;2.60;;;;;;;29.17;32.76;99275.81;4470362;32;20092;-66
2023/07/08 09:57:12;;;;;;;3.62;2.83;;;;;;;28.73;34.91;99272.97;4470234;32;20527;-66
2023/07/08 09:59:47;;;;;;;8.63;2.78;;;;;;;28.32;35.42;99281.12;4469051;32;20410;-66
2023/07/08 10:02:41;;;;;;;4.18;2.78;;;;;;;28.08;36.00;99283.91;4470136;32;20088;-66
2023/07/08 10:05:22;;;;;;;4.35;2.60;;;;;;;27.96;36.53;99280.44;4470231;32;20115;-66
2023/07/08 10:07:54;;;;;;;4.80;2.85;;;;;;;27.73;36.77;99276.69;4470060;32;20117;-66
2023/07/08 10:10:37;;;;;;;5.87;2.70;;;;;;;27.54;37.24;99280.59;4469241;32;20574;-66
2023/07/08 10:13:12;;;;;;;5.97;2.70;;;;;;;27.26;36.54;99272.16;4481787;32;20441;-66
2023/07/08 10:15:52;;;;;;;6.50;2.62;;;;;;;27.36;37.29;99276.16;4485868;31;20386;-66
2023/07/08 10:18:27;;;;;;;5.82;2.75;;;;;;;26.97;37.51;99265.84;4484502;32;20562;-66
2023/07/08 10:21:33;;;;;;;5.25;2.72;;;;;;;26.93;37.98;99267.34;4484257;32;20450;-66
2023/07/08 10:24:20;;;;;;;6.60;2.60;;;;;;;27.06;40.26;99269.00;4420872;32;20094;-66
2023/07/08 10:26:56;;;;;;;6.85;2.55;;;;;;;27.03;37.85;99262.22;4421373;32;20188;-66
2023/07/08 10:29:34;;;;;;;11.05;3.00;;;;;;;26.89;38.27;99260.81;4408917;32;20636;-66
2023/07/08 10:32:16;;;;;;;4.90;2.72;;;;;;;27.02;37.66;99260.56;4408990;32;20113;-66
2023/07/08 10:35:05;;;;;;;;;;;;;;;27.07;37.36;99255.34;4421481;32;20183;-66
2023/07/08 10:37:41;;;;;;;4.43;2.62;;;;;;;27.07;37.57;99258.03;4375520;32;19974;-66
2023/07/08 10:40:38;;;;;;;4.12;2.70;;;;;;;27.29;37.05;99259.31;4375577;32;20436;-66
2023/07/08 10:43:37;;;;;;;5.45;2.70;;;;;;;27.85;37.75;99252.44;4375549;32;20106;-66
2023/07/08 10:46:31;;;;;;;4.05;2.97;;;;;;;28.07;35.72;99257.19;4375737;32;20887;-66
2023/07/08 10:49:02;;;;;;;6.90;3.00;;;;;;;27.94;34.97;99252.91;4375326;32;20145;-66
2023/07/08 10:51:41;;;;;;;4.43;3.03;;;;;;;28.29;34.65;99257.34;4375481;32;20098;-66
2023/07/08 10:54:26;;;;;;;5.65;2.90;;;;;;;28.81;34.15;99245.59;4362854;32;20102;-66
2023/07/08 10:57:01;;;;;;;5.85;2.58;;;;;;;29.44;35.77;99243.59;4375545;32;20107;-66
2023/07/08 10:59:38;;;;;;;5.57;2.70;;;;;;;29.93;33.17;99240.16;4402678;32;20109;-66
2023/07/08 11:02:35;;;;;;;5.03;2.53;;;;;;;30.13;33.76;99241.44;4436168;32;20120;-66
2023/07/08 11:05:31;;;;;;;6.30;2.90;;;;;;;30.34;33.78;99235.19;4436186;32;20085;-66
2023/07/08 11:08:03;;;;;;;3.40;2.60;;;;;;;30.30;32.34;99238.66;4436035;32;20101;-66
2023/07/08 11:10:41;;;;;;;4.55;2.78;;;;;;;30.57;32.52;99234.06;4436290;32;20113;-66
2023/07/08 11:13:23;;;;;;;7.85;2.78;;;;;;;30.23;30.88;99236.97;4420647;32;20385;-66
2023/07/08 11:15:57;;;;;;;3.47;2.85;;;;;;;30.39;30.89;99229.81;4464950;32;20639;-66
2023/07/08 11:18:42;;;;;;;6.20;2.97;;;;;;;30.97;31.91;99219.22;4468397;32;20123;-66
2023/07/08 11:21:24;;;;;;;5.35;2.95;;;;;;;30.91;29.55;99222.16;4468536;32;20108;-66
2023/07/08 11:24:10;;;;;;;4.37;2.75;;;;;;;31.15;29.66;99219.91;4468293;32;20138;-66
2023/07/08 11:26:42;;;;;;;3.85;3.00;;;;;;;31.31;30.91;99218.91;4469804;32;20102;-67
2023/07/08 11:29:25;;;;;;;5.97;2.50;;;;;;;31.29;31.12;99221.03;4469626;32;20115;-66
2023/07/08 11:31:54;;;;;;;4.25;2.58;;;;;;;31.09;31.97;99210.94;4468602;32;20112;-67
2023/07/08 11:34:23;;;;;;;5.68;3.17;;;;;;;31.74;30.56;99202.59;4468442;32;20364;-66
2023/07/08 11:36:52;;;;;;;4.12;2.87;;;;;;;31.85;28.89;99212.38;4469727;32;20080;-66
2023/07/08 11:39:27;;;;;;;3.25;2.95;;;;;;;32.14;30.47;99205.69;4468364;32;20108;-66
2023/07/08 11:42:25;;;;;;;4.28;2.70;;;;;;;32.40;28.78;99201.09;4469794;32;20080;-66
2023/07/08 11:44:59;;;;;;;3.35;2.53;;;;;;;32.19;27.77;99198.38;4467285;32;20089;-66
2023/07/08 11:47:34;;;;;;;5.68;2.78;;;;;;;31.95;28.30;99200.75;4469528;32;20081;-66
2023/07/08 11:50:18;;;;;;;3.55;2.90;;;;;;;31.84;28.85;99202.63;4469368;32;20100;-66
2023/07/08 11:52:55;;;;;;;3.75;2.60;;;;;;;31.65;28.84;99198.78;4469406;32;20140;-66
2023/07/08 11:55:28;;;;;;;7.53;2.90;;;;;;;31.52;30.36;99191.09;4468247;32;20147;-66